sensor_id;sensor_type;location;lat;lon;timestamp;P1;durP1;ratioP1;P2;durP2;ratioP2
16998;SDS011;10211;49.476;11.010;2022-10-30T00:01:35;20.00;;;12.63;;
16998;SDS011;10211;49.476;11.010;2022-10-30T00:04:02;17.83;;;10.63;;
16998;SDS011;10211;49.476;11.010;2022-10-30T00:06:28;19.80;;;11.27;;
16998;SDS011;10211;49.476;11.010;2022-10-30T00:08:55;21.20;;;10.83;;
16998;SDS011;10211;49.476;11.010;2022-10-30T00:11:22;17.43;;;9.67;;
16998;SDS011;10211;49.476;11.010;2022-10-30T00:13:50;17.03;;;8.83;;
16998;SDS011;10211;49.476;11.010;2022-10-30T00:16:17;11.80;;;7.93;;
16998;SDS011;10211;49.476;11.010;2022-10-30T00:18:47;15.17;;;7.20;;
16998;SDS011;10211;49.476;11.010;2022-10-30T00:21:14;14.80;;;7.07;;
16998;SDS011;10211;49.476;11.010;2022-10-30T00:23:44;9.20;;;6.50;;
16998;SDS011;10211;49.476;11.010;2022-10-30T00:26:11;14.03;;;6.57;;
16998;SDS011;10211;49.476;11.010;2022-10-30T00:28:38;8.83;;;6.07;;
16998;SDS011;10211;49.476;11.010;2022-10-30T00:31:07;9.33;;;5.27;;
16998;SDS011;10211;49.476;11.010;2022-10-30T00:33:33;9.83;;;5.73;;
16998;SDS011;10211;49.476;11.010;2022-10-30T00:36:00;11.00;;;5.30;;
16998;SDS011;10211;49.476;11.010;2022-10-30T00:38:27;10.37;;;5.27;;
16998;SDS011;10211;49.476;11.010;2022-10-30T00:40:54;10.10;;;5.63;;
16998;SDS011;10211;49.476;11.010;2022-10-30T00:43:31;9.93;;;5.20;;
16998;SDS011;10211;49.476;11.010;2022-10-30T00:46:00;8.87;;;5.33;;
16998;SDS011;10211;49.476;11.010;2022-10-30T00:48:33;8.20;;;4.80;;
16998;SDS011;10211;49.476;11.010;2022-10-30T00:51:00;7.70;;;4.50;;
16998;SDS011;10211;49.476;11.010;2022-10-30T00:53:29;11.10;;;5.57;;
16998;SDS011;10211;49.476;11.010;2022-10-30T00:55:58;8.83;;;5.23;;
16998;SDS011;10211;49.476;11.010;2022-10-30T00:58:28;12.43;;;5.43;;
16998;SDS011;10211;49.476;11.010;2022-10-30T01:00:58;9.50;;;5.27;;
16998;SDS011;10211;49.476;11.010;2022-10-30T01:03:28;8.80;;;5.67;;
16998;SDS011;10211;49.476;11.010;2022-10-30T01:05:59;9.70;;;5.10;;
16998;SDS011;10211;49.476;11.010;2022-10-30T01:08:28;7.23;;;4.83;;
16998;SDS011;10211;49.476;11.010;2022-10-30T01:10:55;14.83;;;5.67;;
16998;SDS011;10211;49.476;11.010;2022-10-30T01:13:23;10.50;;;5.17;;
16998;SDS011;10211;49.476;11.010;2022-10-30T01:15:54;9.97;;;5.10;;
16998;SDS011;10211;49.476;11.010;2022-10-30T01:18:34;5.13;;;4.40;;
16998;SDS011;10211;49.476;11.010;2022-10-30T01:21:13;10.77;;;5.23;;
16998;SDS011;10211;49.476;11.010;2022-10-30T01:23:52;12.57;;;5.50;;
16998;SDS011;10211;49.476;11.010;2022-10-30T01:26:34;9.83;;;5.37;;
16998;SDS011;10211;49.476;11.010;2022-10-30T01:29:16;7.63;;;5.07;;
16998;SDS011;10211;49.476;11.010;2022-10-30T01:31:56;7.53;;;4.37;;
16998;SDS011;10211;49.476;11.010;2022-10-30T01:34:32;6.40;;;4.70;;
16998;SDS011;10211;49.476;11.010;2022-10-30T01:37:12;8.13;;;5.50;;
16998;SDS011;10211;49.476;11.010;2022-10-30T01:39:43;11.07;;;5.30;;
16998;SDS011;10211;49.476;11.010;2022-10-30T01:42:10;13.37;;;6.03;;
16998;SDS011;10211;49.476;11.010;2022-10-30T01:44:52;12.23;;;4.70;;
16998;SDS011;10211;49.476;11.010;2022-10-30T01:47:21;10.27;;;5.53;;
16998;SDS011;10211;49.476;11.010;2022-10-30T01:50:04;10.50;;;5.57;;
16998;SDS011;10211;49.476;11.010;2022-10-30T01:52:41;12.03;;;4.83;;
16998;SDS011;10211;49.476;11.010;2022-10-30T01:55:17;9.07;;;5.20;;
16998;SDS011;10211;49.476;11.010;2022-10-30T01:57:53;7.30;;;5.40;;
16998;SDS011;10211;49.476;11.010;2022-10-30T02:00:24;8.97;;;5.20;;
16998;SDS011;10211;49.476;11.010;2022-10-30T02:02:52;11.93;;;6.10;;
16998;SDS011;10211;49.476;11.010;2022-10-30T02:05:20;11.20;;;5.43;;
16998;SDS011;10211;49.476;11.010;2022-10-30T02:07:54;7.83;;;4.70;;
16998;SDS011;10211;49.476;11.010;2022-10-30T02:10:21;10.77;;;4.97;;
16998;SDS011;10211;49.476;11.010;2022-10-30T02:12:48;11.13;;;5.70;;
16998;SDS011;10211;49.476;11.010;2022-10-30T02:15:14;12.50;;;5.23;;
16998;SDS011;10211;49.476;11.010;2022-10-30T02:17:42;12.43;;;5.77;;
16998;SDS011;10211;49.476;11.010;2022-10-30T02:20:14;8.70;;;5.40;;
16998;SDS011;10211;49.476;11.010;2022-10-30T02:22:41;9.83;;;5.37;;
16998;SDS011;10211;49.476;11.010;2022-10-30T02:25:08;13.20;;;6.00;;
16998;SDS011;10211;49.476;11.010;2022-10-30T02:27:35;8.47;;;5.57;;
16998;SDS011;10211;49.476;11.010;2022-10-30T02:30:02;8.80;;;5.10;;
16998;SDS011;10211;49.476;11.010;2022-10-30T02:32:30;13.40;;;5.63;;
16998;SDS011;10211;49.476;11.010;2022-10-30T02:34:57;13.03;;;6.70;;
16998;SDS011;10211;49.476;11.010;2022-10-30T02:37:25;10.37;;;5.37;;
16998;SDS011;10211;49.476;11.010;2022-10-30T02:39:52;11.50;;;5.93;;
16998;SDS011;10211;49.476;11.010;2022-10-30T02:42:18;10.17;;;6.23;;
16998;SDS011;10211;49.476;11.010;2022-10-30T02:44:47;8.47;;;5.77;;
16998;SDS011;10211;49.476;11.010;2022-10-30T02:47:14;7.93;;;4.90;;
16998;SDS011;10211;49.476;11.010;2022-10-30T02:49:40;8.87;;;5.00;;
16998;SDS011;10211;49.476;11.010;2022-10-30T02:52:07;11.93;;;5.40;;
16998;SDS011;10211;49.476;11.010;2022-10-30T02:54:35;6.13;;;4.97;;
16998;SDS011;10211;49.476;11.010;2022-10-30T02:57:02;6.97;;;5.27;;
16998;SDS011;10211;49.476;11.010;2022-10-30T02:59:29;10.67;;;5.20;;
16998;SDS011;10211;49.476;11.010;2022-10-30T03:01:56;11.73;;;5.00;;
16998;SDS011;10211;49.476;11.010;2022-10-30T03:04:23;8.10;;;4.77;;
16998;SDS011;10211;49.476;11.010;2022-10-30T03:06:49;10.80;;;5.40;;
16998;SDS011;10211;49.476;11.010;2022-10-30T03:09:16;6.17;;;4.70;;
16998;SDS011;10211;49.476;11.010;2022-10-30T03:11:44;8.10;;;4.73;;
16998;SDS011;10211;49.476;11.010;2022-10-30T03:14:11;10.60;;;4.67;;
16998;SDS011;10211;49.476;11.010;2022-10-30T03:16:38;9.00;;;4.50;;
16998;SDS011;10211;49.476;11.010;2022-10-30T03:19:05;8.63;;;5.40;;
16998;SDS011;10211;49.476;11.010;2022-10-30T03:21:31;8.07;;;4.97;;
16998;SDS011;10211;49.476;11.010;2022-10-30T03:23:58;6.67;;;4.63;;
16998;SDS011;10211;49.476;11.010;2022-10-30T03:26:25;11.87;;;5.83;;
16998;SDS011;10211;49.476;11.010;2022-10-30T03:28:53;7.57;;;4.30;;
16998;SDS011;10211;49.476;11.010;2022-10-30T03:31:20;8.37;;;5.20;;
16998;SDS011;10211;49.476;11.010;2022-10-30T03:33:47;11.07;;;5.70;;
16998;SDS011;10211;49.476;11.010;2022-10-30T03:36:14;6.90;;;4.53;;
16998;SDS011;10211;49.476;11.010;2022-10-30T03:38:41;6.57;;;4.50;;
16998;SDS011;10211;49.476;11.010;2022-10-30T03:41:08;9.00;;;6.27;;
16998;SDS011;10211;49.476;11.010;2022-10-30T03:43:35;7.37;;;4.30;;
16998;SDS011;10211;49.476;11.010;2022-10-30T03:46:04;8.87;;;5.60;;
16998;SDS011;10211;49.476;11.010;2022-10-30T03:48:30;5.73;;;4.87;;
16998;SDS011;10211;49.476;11.010;2022-10-30T03:50:58;8.87;;;5.30;;
16998;SDS011;10211;49.476;11.010;2022-10-30T03:53:25;7.90;;;5.20;;
16998;SDS011;10211;49.476;11.010;2022-10-30T03:55:56;11.40;;;5.33;;
16998;SDS011;10211;49.476;11.010;2022-10-30T03:58:24;10.73;;;5.43;;
16998;SDS011;10211;49.476;11.010;2022-10-30T04:00:51;9.30;;;5.47;;
16998;SDS011;10211;49.476;11.010;2022-10-30T04:03:19;6.00;;;5.40;;
16998;SDS011;10211;49.476;11.010;2022-10-30T04:05:46;10.07;;;4.93;;
16998;SDS011;10211;49.476;11.010;2022-10-30T04:08:15;10.30;;;5.50;;
16998;SDS011;10211;49.476;11.010;2022-10-30T04:10:41;8.17;;;5.17;;
16998;SDS011;10211;49.476;11.010;2022-10-30T04:13:09;9.63;;;5.13;;
16998;SDS011;10211;49.476;11.010;2022-10-30T04:15:36;7.90;;;4.47;;
16998;SDS011;10211;49.476;11.010;2022-10-30T04:18:03;7.40;;;4.67;;
16998;SDS011;10211;49.476;11.010;2022-10-30T04:20:32;11.83;;;5.20;;
16998;SDS011;10211;49.476;11.010;2022-10-30T04:22:59;11.80;;;5.17;;
16998;SDS011;10211;49.476;11.010;2022-10-30T04:25:27;7.17;;;4.80;;
16998;SDS011;10211;49.476;11.010;2022-10-30T04:27:54;8.27;;;4.73;;
16998;SDS011;10211;49.476;11.010;2022-10-30T04:30:21;8.27;;;4.63;;
16998;SDS011;10211;49.476;11.010;2022-10-30T04:32:51;6.70;;;4.57;;
16998;SDS011;10211;49.476;11.010;2022-10-30T04:35:20;11.50;;;5.13;;
16998;SDS011;10211;49.476;11.010;2022-10-30T04:37:53;6.80;;;4.57;;
16998;SDS011;10211;49.476;11.010;2022-10-30T04:40:21;6.37;;;5.10;;
16998;SDS011;10211;49.476;11.010;2022-10-30T04:42:48;8.10;;;6.00;;
16998;SDS011;10211;49.476;11.010;2022-10-30T04:45:16;7.17;;;4.40;;
16998;SDS011;10211;49.476;11.010;2022-10-30T04:47:43;8.13;;;5.47;;
16998;SDS011;10211;49.476;11.010;2022-10-30T04:50:10;11.13;;;5.73;;
16998;SDS011;10211;49.476;11.010;2022-10-30T04:52:37;8.33;;;5.00;;
16998;SDS011;10211;49.476;11.010;2022-10-30T04:55:07;8.00;;;4.80;;
16998;SDS011;10211;49.476;11.010;2022-10-30T04:57:34;7.97;;;5.70;;
16998;SDS011;10211;49.476;11.010;2022-10-30T05:00:02;11.50;;;5.93;;
16998;SDS011;10211;49.476;11.010;2022-10-30T05:02:29;9.57;;;4.77;;
16998;SDS011;10211;49.476;11.010;2022-10-30T05:04:56;8.90;;;5.43;;
16998;SDS011;10211;49.476;11.010;2022-10-30T05:07:22;9.03;;;5.10;;
16998;SDS011;10211;49.476;11.010;2022-10-30T05:09:49;8.80;;;5.13;;
16998;SDS011;10211;49.476;11.010;2022-10-30T05:12:17;9.10;;;4.70;;
16998;SDS011;10211;49.476;11.010;2022-10-30T05:14:44;7.33;;;4.53;;
16998;SDS011;10211;49.476;11.010;2022-10-30T05:17:11;8.23;;;4.60;;
16998;SDS011;10211;49.476;11.010;2022-10-30T05:19:38;4.97;;;4.30;;
16998;SDS011;10211;49.476;11.010;2022-10-30T05:22:05;5.77;;;4.73;;
16998;SDS011;10211;49.476;11.010;2022-10-30T05:24:31;5.10;;;4.17;;
16998;SDS011;10211;49.476;11.010;2022-10-30T05:26:58;8.93;;;4.93;;
16998;SDS011;10211;49.476;11.010;2022-10-30T05:29:26;12.83;;;5.43;;
16998;SDS011;10211;49.476;11.010;2022-10-30T05:31:53;10.87;;;5.27;;
16998;SDS011;10211;49.476;11.010;2022-10-30T05:34:20;10.10;;;6.53;;
16998;SDS011;10211;49.476;11.010;2022-10-30T05:36:46;12.23;;;5.77;;
16998;SDS011;10211;49.476;11.010;2022-10-30T05:39:13;10.57;;;5.60;;
16998;SDS011;10211;49.476;11.010;2022-10-30T05:41:40;11.37;;;5.70;;
16998;SDS011;10211;49.476;11.010;2022-10-30T05:44:07;9.07;;;5.30;;
16998;SDS011;10211;49.476;11.010;2022-10-30T05:46:35;10.53;;;6.03;;
16998;SDS011;10211;49.476;11.010;2022-10-30T05:49:02;9.20;;;5.43;;
16998;SDS011;10211;49.476;11.010;2022-10-30T05:51:29;9.17;;;5.60;;
16998;SDS011;10211;49.476;11.010;2022-10-30T05:53:55;8.43;;;5.00;;
16998;SDS011;10211;49.476;11.010;2022-10-30T05:56:25;8.67;;;5.10;;
16998;SDS011;10211;49.476;11.010;2022-10-30T05:58:52;7.70;;;4.73;;
16998;SDS011;10211;49.476;11.010;2022-10-30T06:01:19;5.73;;;4.50;;
16998;SDS011;10211;49.476;11.010;2022-10-30T06:03:47;8.37;;;4.87;;
16998;SDS011;10211;49.476;11.010;2022-10-30T06:06:13;5.60;;;4.93;;
16998;SDS011;10211;49.476;11.010;2022-10-30T06:08:40;7.37;;;5.33;;
16998;SDS011;10211;49.476;11.010;2022-10-30T06:11:07;10.70;;;6.53;;
16998;SDS011;10211;49.476;11.010;2022-10-30T06:13:34;8.83;;;5.60;;
16998;SDS011;10211;49.476;11.010;2022-10-30T06:16:01;10.37;;;5.43;;
16998;SDS011;10211;49.476;11.010;2022-10-30T06:18:33;6.60;;;5.90;;
16998;SDS011;10211;49.476;11.010;2022-10-30T06:21:07;9.23;;;6.20;;
16998;SDS011;10211;49.476;11.010;2022-10-30T06:23:33;8.20;;;5.57;;
16998;SDS011;10211;49.476;11.010;2022-10-30T06:26:00;6.40;;;5.70;;
16998;SDS011;10211;49.476;11.010;2022-10-30T06:28:27;7.97;;;5.90;;
16998;SDS011;10211;49.476;11.010;2022-10-30T06:30:54;12.43;;;6.67;;
16998;SDS011;10211;49.476;11.010;2022-10-30T06:33:22;9.03;;;6.73;;
16998;SDS011;10211;49.476;11.010;2022-10-30T06:35:49;11.63;;;6.13;;
16998;SDS011;10211;49.476;11.010;2022-10-30T06:38:21;8.87;;;5.43;;
16998;SDS011;10211;49.476;11.010;2022-10-30T06:40:47;7.33;;;5.30;;
16998;SDS011;10211;49.476;11.010;2022-10-30T06:43:17;9.87;;;6.23;;
16998;SDS011;10211;49.476;11.010;2022-10-30T06:45:45;11.37;;;5.30;;
16998;SDS011;10211;49.476;11.010;2022-10-30T06:48:11;11.97;;;6.43;;
16998;SDS011;10211;49.476;11.010;2022-10-30T06:50:38;15.97;;;6.27;;
16998;SDS011;10211;49.476;11.010;2022-10-30T06:53:05;11.07;;;6.13;;
16998;SDS011;10211;49.476;11.010;2022-10-30T06:55:33;11.27;;;6.27;;
16998;SDS011;10211;49.476;11.010;2022-10-30T06:58:00;8.60;;;6.80;;
16998;SDS011;10211;49.476;11.010;2022-10-30T07:00:27;9.47;;;5.80;;
16998;SDS011;10211;49.476;11.010;2022-10-30T07:02:54;9.27;;;6.20;;
16998;SDS011;10211;49.476;11.010;2022-10-30T07:05:22;12.00;;;7.60;;
16998;SDS011;10211;49.476;11.010;2022-10-30T07:07:48;10.47;;;6.80;;
16998;SDS011;10211;49.476;11.010;2022-10-30T07:10:15;10.47;;;6.70;;
16998;SDS011;10211;49.476;11.010;2022-10-30T07:12:43;8.20;;;6.37;;
16998;SDS011;10211;49.476;11.010;2022-10-30T07:15:16;11.27;;;6.40;;
16998;SDS011;10211;49.476;11.010;2022-10-30T07:17:49;9.40;;;5.93;;
16998;SDS011;10211;49.476;11.010;2022-10-30T07:20:17;9.20;;;6.33;;
16998;SDS011;10211;49.476;11.010;2022-10-30T07:22:44;9.93;;;6.03;;
16998;SDS011;10211;49.476;11.010;2022-10-30T07:25:10;8.23;;;6.47;;
16998;SDS011;10211;49.476;11.010;2022-10-30T07:27:40;9.13;;;5.70;;
16998;SDS011;10211;49.476;11.010;2022-10-30T07:30:09;8.80;;;6.23;;
16998;SDS011;10211;49.476;11.010;2022-10-30T07:32:37;11.57;;;6.03;;
16998;SDS011;10211;49.476;11.010;2022-10-30T07:35:04;13.27;;;5.17;;
16998;SDS011;10211;49.476;11.010;2022-10-30T07:37:32;9.57;;;5.20;;
16998;SDS011;10211;49.476;11.010;2022-10-30T07:39:59;10.60;;;5.90;;
16998;SDS011;10211;49.476;11.010;2022-10-30T07:42:25;8.87;;;5.37;;
16998;SDS011;10211;49.476;11.010;2022-10-30T07:44:52;8.03;;;4.70;;
16998;SDS011;10211;49.476;11.010;2022-10-30T07:47:20;10.57;;;4.63;;
16998;SDS011;10211;49.476;11.010;2022-10-30T07:49:47;10.53;;;4.80;;
16998;SDS011;10211;49.476;11.010;2022-10-30T07:52:14;8.67;;;4.67;;
16998;SDS011;10211;49.476;11.010;2022-10-30T07:54:41;7.37;;;4.10;;
16998;SDS011;10211;49.476;11.010;2022-10-30T07:57:08;11.33;;;4.70;;
16998;SDS011;10211;49.476;11.010;2022-10-30T07:59:35;11.63;;;4.87;;
16998;SDS011;10211;49.476;11.010;2022-10-30T08:02:01;8.23;;;5.00;;
16998;SDS011;10211;49.476;11.010;2022-10-30T08:04:29;7.07;;;4.10;;
16998;SDS011;10211;49.476;11.010;2022-10-30T08:06:56;5.63;;;4.20;;
16998;SDS011;10211;49.476;11.010;2022-10-30T08:09:23;5.97;;;4.23;;
16998;SDS011;10211;49.476;11.010;2022-10-30T08:11:58;9.07;;;3.80;;
16998;SDS011;10211;49.476;11.010;2022-10-30T08:14:26;4.50;;;3.97;;
16998;SDS011;10211;49.476;11.010;2022-10-30T08:16:53;5.83;;;3.67;;
16998;SDS011;10211;49.476;11.010;2022-10-30T08:19:21;5.20;;;3.60;;
16998;SDS011;10211;49.476;11.010;2022-10-30T08:21:50;5.70;;;3.90;;
16998;SDS011;10211;49.476;11.010;2022-10-30T08:24:17;7.43;;;4.00;;
16998;SDS011;10211;49.476;11.010;2022-10-30T08:26:44;4.77;;;3.97;;
16998;SDS011;10211;49.476;11.010;2022-10-30T08:29:11;11.17;;;4.27;;
16998;SDS011;10211;49.476;11.010;2022-10-30T08:31:38;8.30;;;4.10;;
16998;SDS011;10211;49.476;11.010;2022-10-30T08:34:05;6.93;;;3.43;;
16998;SDS011;10211;49.476;11.010;2022-10-30T08:36:33;8.37;;;3.83;;
16998;SDS011;10211;49.476;11.010;2022-10-30T08:39:01;6.33;;;4.03;;
16998;SDS011;10211;49.476;11.010;2022-10-30T08:41:29;6.67;;;3.97;;
16998;SDS011;10211;49.476;11.010;2022-10-30T08:43:55;9.90;;;4.50;;
16998;SDS011;10211;49.476;11.010;2022-10-30T08:46:22;5.37;;;3.90;;
16998;SDS011;10211;49.476;11.010;2022-10-30T08:48:49;6.47;;;4.00;;
16998;SDS011;10211;49.476;11.010;2022-10-30T08:51:18;7.57;;;3.60;;
16998;SDS011;10211;49.476;11.010;2022-10-30T08:53:46;5.60;;;3.87;;
16998;SDS011;10211;49.476;11.010;2022-10-30T08:56:23;7.97;;;4.17;;
16998;SDS011;10211;49.476;11.010;2022-10-30T08:58:49;5.93;;;4.03;;
16998;SDS011;10211;49.476;11.010;2022-10-30T09:01:16;6.90;;;3.37;;
16998;SDS011;10211;49.476;11.010;2022-10-30T09:03:44;8.93;;;4.80;;
16998;SDS011;10211;49.476;11.010;2022-10-30T09:06:11;8.30;;;3.77;;
16998;SDS011;10211;49.476;11.010;2022-10-30T09:08:39;5.93;;;3.13;;
16998;SDS011;10211;49.476;11.010;2022-10-30T09:11:06;7.30;;;3.37;;
16998;SDS011;10211;49.476;11.010;2022-10-30T09:13:34;8.10;;;3.73;;
16998;SDS011;10211;49.476;11.010;2022-10-30T09:16:02;14.67;;;4.57;;
16998;SDS011;10211;49.476;11.010;2022-10-30T09:18:29;6.70;;;3.83;;
16998;SDS011;10211;49.476;11.010;2022-10-30T09:20:56;7.30;;;3.77;;
16998;SDS011;10211;49.476;11.010;2022-10-30T09:23:23;4.90;;;3.60;;
16998;SDS011;10211;49.476;11.010;2022-10-30T09:25:50;5.47;;;3.23;;
16998;SDS011;10211;49.476;11.010;2022-10-30T09:28:17;5.07;;;3.57;;
16998;SDS011;10211;49.476;11.010;2022-10-30T09:30:45;8.53;;;3.97;;
16998;SDS011;10211;49.476;11.010;2022-10-30T09:33:16;8.43;;;4.03;;
16998;SDS011;10211;49.476;11.010;2022-10-30T09:35:44;11.27;;;5.03;;
16998;SDS011;10211;49.476;11.010;2022-10-30T09:38:10;8.00;;;3.73;;
16998;SDS011;10211;49.476;11.010;2022-10-30T09:40:41;5.77;;;3.30;;
16998;SDS011;10211;49.476;11.010;2022-10-30T09:43:20;6.97;;;3.83;;
16998;SDS011;10211;49.476;11.010;2022-10-30T09:46:02;7.50;;;4.20;;
16998;SDS011;10211;49.476;11.010;2022-10-30T09:48:51;10.77;;;3.97;;
16998;SDS011;10211;49.476;11.010;2022-10-30T09:51:33;8.07;;;3.37;;
16998;SDS011;10211;49.476;11.010;2022-10-30T09:54:17;8.33;;;4.30;;
16998;SDS011;10211;49.476;11.010;2022-10-30T09:56:53;5.80;;;3.17;;
16998;SDS011;10211;49.476;11.010;2022-10-30T09:59:29;6.10;;;3.73;;
16998;SDS011;10211;49.476;11.010;2022-10-30T10:02:08;8.10;;;3.87;;
16998;SDS011;10211;49.476;11.010;2022-10-30T10:04:47;6.53;;;3.33;;
16998;SDS011;10211;49.476;11.010;2022-10-30T10:07:20;5.93;;;3.23;;
16998;SDS011;10211;49.476;11.010;2022-10-30T10:09:51;6.03;;;3.73;;
16998;SDS011;10211;49.476;11.010;2022-10-30T10:12:23;7.20;;;3.20;;
16998;SDS011;10211;49.476;11.010;2022-10-30T10:14:55;6.33;;;3.77;;
16998;SDS011;10211;49.476;11.010;2022-10-30T10:17:24;7.50;;;3.67;;
16998;SDS011;10211;49.476;11.010;2022-10-30T10:19:57;8.20;;;3.23;;
16998;SDS011;10211;49.476;11.010;2022-10-30T10:22:26;4.07;;;2.60;;
16998;SDS011;10211;49.476;11.010;2022-10-30T10:24:58;6.57;;;3.73;;
16998;SDS011;10211;49.476;11.010;2022-10-30T10:27:28;11.52;;;3.63;;
16998;SDS011;10211;49.476;11.010;2022-10-30T10:30:07;13.45;;;3.50;;
16998;SDS011;10211;49.476;11.010;2022-10-30T10:32:46;9.48;;;3.53;;
16998;SDS011;10211;49.476;11.010;2022-10-30T10:35:45;5.90;;;2.83;;
16998;SDS011;10211;49.476;11.010;2022-10-30T10:38:27;6.45;;;3.00;;
16998;SDS011;10211;49.476;11.010;2022-10-30T10:41:04;8.60;;;3.65;;
16998;SDS011;10211;49.476;11.010;2022-10-30T10:43:43;6.28;;;3.22;;
16998;SDS011;10211;49.476;11.010;2022-10-30T10:46:27;7.35;;;3.25;;
16998;SDS011;10211;49.476;11.010;2022-10-30T10:49:09;4.18;;;2.78;;
16998;SDS011;10211;49.476;11.010;2022-10-30T10:51:47;5.07;;;3.13;;
16998;SDS011;10211;49.476;11.010;2022-10-30T10:54:17;6.32;;;3.45;;
16998;SDS011;10211;49.476;11.010;2022-10-30T10:56:49;7.00;;;3.22;;
16998;SDS011;10211;49.476;11.010;2022-10-30T10:59:17;6.03;;;2.95;;
16998;SDS011;10211;49.476;11.010;2022-10-30T11:01:49;9.02;;;3.85;;
16998;SDS011;10211;49.476;11.010;2022-10-30T11:04:25;7.63;;;3.60;;
16998;SDS011;10211;49.476;11.010;2022-10-30T11:06:57;8.02;;;3.17;;
16998;SDS011;10211;49.476;11.010;2022-10-30T11:09:28;5.93;;;3.03;;
16998;SDS011;10211;49.476;11.010;2022-10-30T11:11:55;8.35;;;3.92;;
16998;SDS011;10211;49.476;11.010;2022-10-30T11:14:22;5.30;;;3.42;;
16998;SDS011;10211;49.476;11.010;2022-10-30T11:16:55;7.45;;;3.53;;
16998;SDS011;10211;49.476;11.010;2022-10-30T11:19:30;8.80;;;3.70;;
16998;SDS011;10211;49.476;11.010;2022-10-30T11:21:58;7.45;;;3.83;;
16998;SDS011;10211;49.476;11.010;2022-10-30T11:24:27;7.03;;;3.78;;
16998;SDS011;10211;49.476;11.010;2022-10-30T11:26:56;7.70;;;3.85;;
16998;SDS011;10211;49.476;11.010;2022-10-30T11:29:24;7.22;;;4.80;;
16998;SDS011;10211;49.476;11.010;2022-10-30T11:31:58;7.35;;;3.38;;
16998;SDS011;10211;49.476;11.010;2022-10-30T11:34:40;4.97;;;3.35;;
16998;SDS011;10211;49.476;11.010;2022-10-30T11:37:07;8.82;;;3.78;;
16998;SDS011;10211;49.476;11.010;2022-10-30T11:40:00;5.82;;;3.25;;
16998;SDS011;10211;49.476;11.010;2022-10-30T11:42:27;8.02;;;3.65;;
16998;SDS011;10211;49.476;11.010;2022-10-30T11:44:55;7.38;;;3.33;;
16998;SDS011;10211;49.476;11.010;2022-10-30T11:47:24;7.65;;;3.63;;
16998;SDS011;10211;49.476;11.010;2022-10-30T11:49:58;6.00;;;2.67;;
16998;SDS011;10211;49.476;11.010;2022-10-30T11:52:27;5.47;;;3.10;;
16998;SDS011;10211;49.476;11.010;2022-10-30T11:54:55;7.50;;;4.07;;
16998;SDS011;10211;49.476;11.010;2022-10-30T11:57:26;6.20;;;3.58;;
16998;SDS011;10211;49.476;11.010;2022-10-30T11:59:58;7.78;;;3.55;;
16998;SDS011;10211;49.476;11.010;2022-10-30T12:02:26;7.75;;;3.45;;
16998;SDS011;10211;49.476;11.010;2022-10-30T12:04:54;4.97;;;3.88;;
16998;SDS011;10211;49.476;11.010;2022-10-30T12:07:28;7.47;;;3.90;;
16998;SDS011;10211;49.476;11.010;2022-10-30T12:09:56;8.13;;;4.18;;
16998;SDS011;10211;49.476;11.010;2022-10-30T12:12:26;7.47;;;4.07;;
16998;SDS011;10211;49.476;11.010;2022-10-30T12:14:57;10.55;;;4.88;;
16998;SDS011;10211;49.476;11.010;2022-10-30T12:17:34;11.52;;;4.10;;
16998;SDS011;10211;49.476;11.010;2022-10-30T12:20:03;7.45;;;4.03;;
16998;SDS011;10211;49.476;11.010;2022-10-30T12:22:33;7.68;;;3.80;;
16998;SDS011;10211;49.476;11.010;2022-10-30T12:25:00;8.50;;;4.05;;
16998;SDS011;10211;49.476;11.010;2022-10-30T12:27:30;8.60;;;3.80;;
16998;SDS011;10211;49.476;11.010;2022-10-30T12:30:03;8.70;;;3.60;;
16998;SDS011;10211;49.476;11.010;2022-10-30T12:32:44;5.18;;;3.70;;
16998;SDS011;10211;49.476;11.010;2022-10-30T12:35:21;7.40;;;3.92;;
16998;SDS011;10211;49.476;11.010;2022-10-30T12:38:02;8.85;;;4.43;;
16998;SDS011;10211;49.476;11.010;2022-10-30T12:40:37;8.07;;;3.97;;
16998;SDS011;10211;49.476;11.010;2022-10-30T12:43:15;5.40;;;3.92;;
16998;SDS011;10211;49.476;11.010;2022-10-30T12:45:48;7.43;;;3.97;;
16998;SDS011;10211;49.476;11.010;2022-10-30T12:48:21;5.90;;;3.70;;
16998;SDS011;10211;49.476;11.010;2022-10-30T12:51:02;5.90;;;4.05;;
16998;SDS011;10211;49.476;11.010;2022-10-30T12:53:41;8.80;;;4.15;;
16998;SDS011;10211;49.476;11.010;2022-10-30T12:56:15;7.65;;;3.72;;
16998;SDS011;10211;49.476;11.010;2022-10-30T12:58:46;9.23;;;3.97;;
16998;SDS011;10211;49.476;11.010;2022-10-30T13:01:16;6.47;;;3.97;;
16998;SDS011;10211;49.476;11.010;2022-10-30T13:03:52;7.43;;;4.20;;
16998;SDS011;10211;49.476;11.010;2022-10-30T13:06:22;7.32;;;3.47;;
16998;SDS011;10211;49.476;11.010;2022-10-30T13:08:58;6.72;;;4.10;;
16998;SDS011;10211;49.476;11.010;2022-10-30T13:11:32;6.90;;;3.75;;
16998;SDS011;10211;49.476;11.010;2022-10-30T13:14:07;8.60;;;4.45;;
16998;SDS011;10211;49.476;11.010;2022-10-30T13:16:39;4.38;;;3.40;;
16998;SDS011;10211;49.476;11.010;2022-10-30T13:19:07;6.03;;;3.40;;
16998;SDS011;10211;49.476;11.010;2022-10-30T13:21:37;8.82;;;3.78;;
16998;SDS011;10211;49.476;11.010;2022-10-30T13:24:11;8.93;;;3.95;;
16998;SDS011;10211;49.476;11.010;2022-10-30T13:26:40;10.10;;;3.67;;
16998;SDS011;10211;49.476;11.010;2022-10-30T13:29:13;6.82;;;3.58;;
16998;SDS011;10211;49.476;11.010;2022-10-30T13:31:49;9.07;;;3.50;;
16998;SDS011;10211;49.476;11.010;2022-10-30T13:34:25;10.30;;;4.00;;
16998;SDS011;10211;49.476;11.010;2022-10-30T13:37:04;6.20;;;3.47;;
16998;SDS011;10211;49.476;11.010;2022-10-30T13:39:57;6.30;;;3.63;;
16998;SDS011;10211;49.476;11.010;2022-10-30T13:42:35;10.35;;;3.38;;
16998;SDS011;10211;49.476;11.010;2022-10-30T13:45:20;10.98;;;3.65;;
16998;SDS011;10211;49.476;11.010;2022-10-30T13:47:58;6.53;;;3.20;;
16998;SDS011;10211;49.476;11.010;2022-10-30T13:50:35;6.88;;;3.17;;
16998;SDS011;10211;49.476;11.010;2022-10-30T13:53:10;7.32;;;2.97;;
16998;SDS011;10211;49.476;11.010;2022-10-30T13:55:42;7.72;;;3.30;;
16998;SDS011;10211;49.476;11.010;2022-10-30T13:58:11;8.05;;;3.53;;
16998;SDS011;10211;49.476;11.010;2022-10-30T14:00:49;3.55;;;3.22;;
16998;SDS011;10211;49.476;11.010;2022-10-30T14:03:28;4.75;;;2.88;;
16998;SDS011;10211;49.476;11.010;2022-10-30T14:06:08;9.23;;;4.25;;
16998;SDS011;10211;49.476;11.010;2022-10-30T14:08:42;5.90;;;3.17;;
16998;SDS011;10211;49.476;11.010;2022-10-30T14:11:17;5.72;;;3.15;;
16998;SDS011;10211;49.476;11.010;2022-10-30T14:13:45;6.68;;;2.85;;
16998;SDS011;10211;49.476;11.010;2022-10-30T14:16:31;8.13;;;2.88;;
16998;SDS011;10211;49.476;11.010;2022-10-30T14:19:00;9.95;;;2.85;;
16998;SDS011;10211;49.476;11.010;2022-10-30T14:21:30;10.82;;;3.30;;
16998;SDS011;10211;49.476;11.010;2022-10-30T14:24:03;5.65;;;3.10;;
16998;SDS011;10211;49.476;11.010;2022-10-30T14:26:37;5.30;;;3.40;;
16998;SDS011;10211;49.476;11.010;2022-10-30T14:38:23;8.27;;;3.65;;
16998;SDS011;10211;49.476;11.010;2022-10-30T14:41:01;9.30;;;3.43;;
16998;SDS011;10211;49.476;11.010;2022-10-30T14:44:02;8.73;;;3.63;;
16998;SDS011;10211;49.476;11.010;2022-10-30T14:47:19;4.33;;;2.90;;
16998;SDS011;10211;49.476;11.010;2022-10-30T14:50:03;5.37;;;3.30;;
16998;SDS011;10211;49.476;11.010;2022-10-30T14:52:42;6.90;;;3.63;;
16998;SDS011;10211;49.476;11.010;2022-10-30T14:55:27;5.40;;;3.27;;
16998;SDS011;10211;49.476;11.010;2022-10-30T14:58:14;6.30;;;3.30;;
16998;SDS011;10211;49.476;11.010;2022-10-30T15:00:45;7.07;;;4.00;;